• Join FlightAware (Why Join?)
  • Login
  • US Flag 
08:47PM EDT


 

Airport Tracker/Info


-or-


 

Live Flight TrackerFlight Track Log ✈ BOE1 ✈ 14-Feb-2010 ✈ KBFI - KBFI

Flight Track Log - Related Links

Times and Time Zones

All times are in EST time to prevent confusion due to time zone crossing. See the BOE1 flight status page for this flight to view local times or setup timezone preferences in your user account.

Time Position Orientation Groundspeed Altitude Reporting Facility
EST Latitude Longitude Course Direction KTS MPH feet Rate Location/Type
04:20PM 47.5128 -122.2940 139° Southeast 162 186 1,100  Level Seattle Center
04:21PM 47.4642 -122.2310 123° Southeast 226 260 3,800 2,220 Climbing Seattle Center
04:22PM 47.4264 -122.1460 122° Southeast 236 272 6,000 5,640 Climbing Seattle Center
04:23PM 47.3828 -122.0430 110° East 261 300 15,000 2,640 Climbing Seattle Center
04:24PM 47.3556 -121.9350 107° East 266 306 11,300 -480 Descending Seattle Center
04:25PM 47.3325 -121.8240 108° East 279 321 14,100 1,800 Climbing Seattle Center
04:26PM 47.3056 -121.7010 108° East 293 337 15,000 480 Climbing Seattle Center
04:27PM 47.2783 -121.5770 111° Southeast 306 352 15,100  Climbing Seattle Center
04:28PM 47.2428 -121.4420 108° East 320 368 15,100  Level Seattle Center
04:29PM 47.2114 -121.3000 111° Southeast 349 402 15,100 -120 Level Seattle Center
04:30PM 47.1758 -121.1650 113° Southeast 355 409 14,900 -60 Descending Seattle Center
04:31PM 47.1375 -121.0330 114° Southeast 355 409 15,000 60 Climbing Seattle Center
04:32PM 47.0972 -120.8980 111° Southeast 355 409 15,100 60 Climbing Seattle Center
04:33PM 47.0611 -120.7600 101° East 355 409 15,200 60 Climbing Seattle Center
04:34PM 47.0414 -120.6170 107° East 360 414 15,300  Climbing Seattle Center
04:35PM 47.0153 -120.4890 105° East 360 414 15,200 -180 Descending Seattle Center
04:36PM 46.9889 -120.3450 107° East 360 414 15,000 -120 Descending Seattle Center
04:37PM 46.9603 -120.2050 106° East 360 414 15,000  Level Seattle Center
04:38PM 46.9336 -120.0710 103° East 355 409 15,000  Level Seattle Center
04:39PM 46.9111 -119.9340 107° East 337 388 15,000  Level Seattle Center
04:40PM 46.8861 -119.8130 115° Southeast 316 364 15,000  Level Seattle Center
04:41PM 46.8508 -119.7010 119° Southeast 310 357 15,000 -540 Level Seattle Center
04:42PM 46.8089 -119.5890 115° Southeast 305 351 14,000 -1,080 Descending Seattle Center
04:43PM 46.7756 -119.4860 120° Southeast 298 343 12,900 -1,260 Descending Seattle Center
04:44PM 46.7378 -119.3920 120° Southeast 293 337 11,500 -1,860 Descending Seattle Center
04:45PM 46.6978 -119.2900 117° Southeast 293 337 9,200 -1,260 Descending Seattle Center
04:46PM 46.6639 -119.1930 120° Southeast 285 328 9,000 -120 Descending Seattle Center
04:47PM 46.6261 -119.0970 119° Southeast 278 320 9,000  Level Seattle Center
04:48PM 46.5900 -119.0010 115° Southeast 278 320 9,000  Level Seattle Center
04:49PM 46.5517 -118.8840 119° Southeast 277 319 9,000  Level Seattle Center
04:50PM 46.5133 -118.7850 118° Southeast 282 325 9,000  Level Seattle Center
04:51PM 46.4772 -118.6860 120° Southeast 282 325 9,000  Level Seattle Center
04:52PM 46.4322 -118.5730 120° Southeast 299 344 9,000  Level Seattle Center
04:53PM 46.3853 -118.4560 120° Southeast 320 368 9,000  Level Seattle Center
04:54PM 46.3381 -118.3400 118° Southeast 333 383 9,000  Level Seattle Center
04:55PM 46.2969 -118.2270 120° Southeast 328 377 9,000  Level Seattle Center
04:56PM 46.2494 -118.1080 120° Southeast 328 377 9,000  Level Seattle Center
04:57PM 46.2042 -117.9930 118° Southeast 328 377 9,000  Level Seattle Center
04:58PM 46.1606 -117.8770 123° Southeast 329 379 9,000  Level Seattle Center
04:59PM 46.1108 -117.7680 124° Southeast 329 379 9,000  Level Seattle Center
05:00PM 46.0589 -117.6560 125° Southeast 329 379 9,000  Level Seattle Center
05:01PM 46.0069 -117.5510 124° Southeast 335 386 9,000  Level Seattle Center
05:02PM 45.9461 -117.4220 77° East 327 376 9,100  Climbing Seattle Center
05:03PM 45.9644 -117.3110 335° Northwest 267 307 9,100  Level Seattle Center
05:04PM 46.0469 -117.3670 291° West 153 176 9,100  Level Seattle Center
05:05PM 46.0786 -117.4880 294° West 204 235 9,200 -60 Climbing Seattle Center
05:06PM 46.1097 -117.5890 297° West 239 275 9,000 -120 Descending Seattle Center
05:07PM 46.1514 -117.7070 293° West 281 323 9,000  Level Seattle Center
05:08PM 46.1847 -117.8230 294° West 286 329 9,000  Level Seattle Center
05:09PM 46.2200 -117.9380 293° West 301 346 9,000  Level Seattle Center
05:10PM 46.2550 -118.0570 294° West 315 362 9,000  Level Seattle Center
05:11PM 46.2900 -118.1730 296° West 315 362 9,000  Level Seattle Center
05:12PM 46.3269 -118.2830 300° West 315 362 9,100  Climbing Seattle Center
05:13PM 46.3700 -118.3930 296° West 315 362 9,100  Level Seattle Center
05:14PM 46.4086 -118.5100 302° West 315 362 9,100 -60 Level Seattle Center
05:15PM 46.4536 -118.6140 North 315 362 9,000 -60 Descending Seattle Center
05:16PM 46.5389 -118.6030 35° Northeast 261 300 9,000  Level Seattle Center
05:17PM 46.6150 -118.5260 32° Northeast 256 295 9,000 180 Level Seattle Center
05:18PM 46.6933 -118.4550 34° Northeast 285 328 9,400 420 Climbing Seattle Center
05:19PM 46.7694 -118.3800 32° Northeast 313 360 9,900 300 Climbing Seattle Center
05:20PM 46.8497 -118.3080 34° Northeast 323 372 10,000  Climbing Seattle Center
05:21PM 46.9258 -118.2340 32° Northeast 328 377 10,000  Level Seattle Center
05:22PM 47.0061 -118.1610 33° Northeast 328 377 10,000  Level Seattle Center
05:23PM 47.0861 -118.0860 32° Northeast 334 384 10,000  Level Seattle Center
05:24PM 47.1642 -118.0130 33° Northeast 339 390 10,000  Level Seattle Center
05:25PM 47.2422 -117.9370 30° Northeast 339 390 10,000  Level Seattle Center
05:26PM 47.2750 -117.9090 36° Northeast 335 386 10,000  Level Seattle Center
05:26PM 47.3200 -117.8610 32° Northeast 339 390 10,000  Level Seattle Center
05:27PM 47.4000 -117.7880 34° Northeast 339 390 10,000  Level Seattle Center
05:28PM 47.4778 -117.7110 33° Northeast 339 390 10,000  Level Seattle Center
05:29PM 47.5575 -117.6350 28° Northeast 339 390 10,000  Level Seattle Center
05:30PM 47.5861 -117.6120 36° Northeast 322 371 10,000  Level Seattle Center
05:30PM 47.6331 -117.5610 30° Northeast 339 390 10,000  Level Seattle Center
05:31PM 47.7150 -117.4900 21° North 339 390 10,000  Level Seattle Center
05:32PM 47.7972 -117.4430 307° West 326 375 10,000  Level Seattle Center
05:33PM 47.8447 -117.5370 275° West 239 275 10,000  Level Seattle Center
05:34PM 47.8481 -117.5920 279° West 298 343 10,000  Level Seattle Center
05:34PM 47.8553 -117.6570 280° West 230 265 10,000 480 Level Seattle Center
05:35PM 47.8700 -117.7830 279° West 303 349 10,800 900 Climbing Seattle Center
05:36PM 47.8825 -117.9060 280° West 320 368 11,800 1,080 Climbing Seattle Center
05:37PM 47.8967 -118.0230 279° West 308 354 13,000 1,320 Climbing Seattle Center
05:38PM 47.9086 -118.1310 274° West 288 331 14,500 1,200 Climbing Seattle Center
05:39PM 47.9144 -118.2450 276° West 283 326 15,500 480 Climbing Seattle Center
05:40PM 47.9222 -118.3590 276° West 283 326 15,500  Level Seattle Center
05:41PM 47.9297 -118.4740 276° West 278 320 15,500  Level Seattle Center
05:42PM 47.9372 -118.5880 275° West 278 320 15,500  Level Seattle Center
05:43PM 47.9444 -118.7020 277° West 278 320 15,500  Level Seattle Center
05:44PM 47.9539 -118.8170 275° West 278 320 15,500  Level Seattle Center
05:45PM 47.9608 -118.9310 275° West 278 320 15,500  Level Seattle Center
05:46PM 47.9678 -119.0460 275° West 278 320 15,500  Level Seattle Center
05:47PM 47.9747 -119.1630 276° West 278 320 15,500  Level Seattle Center
05:48PM 47.9836 -119.2810 275° West 289 333 15,500  Level Seattle Center
05:49PM 47.9903 -119.4020 278° West 289 333 15,500 -120 Level Seattle Center
05:50PM 48.0011 -119.5160 285° West 294 338 15,300 -120 Descending Seattle Center
05:51PM 48.0222 -119.6340 292° West 294 338 15,300 -120 Level Seattle Center
05:52PM 48.0533 -119.7480 284° West 294 338 15,100 -60 Descending Seattle Center
05:53PM 48.0722 -119.8630 278° West 294 338 15,200  Climbing Seattle Center
05:54PM 48.0825 -119.9780 259° West 294 338 15,200  Level Seattle Center
05:55PM 48.0675 -120.0930 280° West 288 331 15,300 60 Climbing Seattle Center
05:56PM 48.0817 -120.2110 277° West 288 331 15,400 60 Climbing Seattle Center
05:57PM 48.0917 -120.3320 275° West 293 337 15,500  Climbing Seattle Center
05:58PM 48.0994 -120.4530 275° West 293 337 15,500  Level Seattle Center
05:59PM 48.1069 -120.5710 274° West 293 337 15,500  Level Seattle Center
06:00PM 48.1122 -120.6920 275° West 293 337 15,500  Level Seattle Center
06:01PM 48.1197 -120.8110 279° West 293 337 15,500  Level Seattle Center
06:02PM 48.1311 -120.9230 275° West 293 337 15,500  Level Seattle Center
06:03PM 48.1383 -121.0410 278° West 293 337 15,500  Level Seattle Center
06:04PM 48.1494 -121.1590 337° Northwest 293 337 15,500  Level Seattle Center
06:05PM 48.2197 -121.2040 62° Northeast 266 306 15,500  Level Seattle Center
06:06PM 48.2583 -121.0930 107° East 181 208 15,500  Level Seattle Center
06:07PM 48.2306 -120.9590 107° East 191 220 15,500  Level Seattle Center
06:08PM 48.2008 -120.8150 108° East 273 314 15,500  Level Seattle Center
06:09PM 48.1728 -120.6840 109° East 317 365 15,500  Level Seattle Center
06:10PM 48.1425 -120.5560 105° East 327 376 15,600 120 Climbing Seattle Center
06:11PM 48.1203 -120.4290 111° Southeast 327 376 15,800 180 Climbing Seattle Center
06:12PM 48.0875 -120.3010 110° East 327 376 16,000 120 Climbing Seattle Center
06:13PM 48.0569 -120.1760 108° East 327 376 16,100  Climbing Seattle Center
06:14PM 48.0281 -120.0460 102° East 327 376 16,000 -60 Descending Seattle Center
06:15PM 48.0097 -119.9160 102° East 321 369 16,000  Level Seattle Center
06:16PM 47.9911 -119.7830 104° East 321 369 16,000  Level Seattle Center
06:17PM 47.9700 -119.6560 99° East 316 364 16,000 -60 Level Seattle Center
06:18PM 47.9553 -119.5190 72° East 316 364 15,900 -60 Descending Seattle Center
06:19PM 47.9800 -119.4020 339° North 307 353 15,900 -120 Level Seattle Center
06:20PM 48.0592 -119.4480 302° West 183 211 15,700 -60 Descending Seattle Center
06:21PM 48.1031 -119.5530 135° Southeast 211 243 15,800  Climbing Seattle Center
06:22PM 48.0656 -119.4970 90° East 38 44 15,800  Level Seattle Center
06:23PM 48.0653 -119.3670 329° Northwest 183 211 15,800  Level Seattle Center
06:24PM 48.1339 -119.4290 291° West 130 150 15,800  Level Seattle Center
06:25PM 48.1633 -119.5430 179° South 194 223 15,800 -300 Level Seattle Center
06:26PM 48.1092 -119.5410 94° East 91 105 15,300 -480 Descending Seattle Center
06:27PM 48.1050 -119.4510 322° Northwest 102 117 14,900 60 Descending Seattle Center
06:28PM 48.1653 -119.5220 272° West 136 157 15,500 240 Climbing Seattle Center
06:29PM 48.1678 -119.6120 143° Southeast 155 178 15,400 -240 Descending Seattle Center
06:30PM 48.1094 -119.5470 11° North 95 109 15,100 -120 Descending Seattle Center
06:31PM 48.1758 -119.5280 273° West 104 120 15,200 180 Climbing Seattle Center
06:32PM 48.1803 -119.6460 271° West 172 198 15,500 240 Climbing Seattle Center
06:33PM 48.1822 -119.7760 270° West 244 281 15,700 120 Climbing Seattle Center
06:34PM 48.1822 -119.9130 265° West 291 335 15,800  Climbing Seattle Center
06:35PM 48.1736 -120.0470 274° West 309 356 15,800 120 Level Seattle Center
06:36PM 48.1797 -120.1840 274° West 328 377 16,100 60 Climbing Seattle Center
06:37PM 48.1853 -120.3170 276° West 328 377 16,000 -180 Descending Seattle Center
06:38PM 48.1950 -120.4540 274° West 328 377 15,800 -180 Descending Seattle Center
06:39PM 48.2006 -120.5880 272° West 328 377 15,700 -180 Descending Seattle Center
06:40PM 48.2036 -120.7250 267° West 328 377 15,500 -240 Descending Seattle Center
06:41PM 48.1983 -120.8620 265° West 328 377 15,300 -120 Descending Seattle Center
06:42PM 48.1908 -120.9920 261° West 328 377 15,300  Level Seattle Center
06:43PM 48.1769 -121.1290 258° West 328 377 15,300  Level Seattle Center
06:44PM 48.1586 -121.2560 256° West 328 377 15,400  Climbing Seattle Center
06:45PM 48.1383 -121.3820 258° West 328 377 15,400  Level Seattle Center
06:46PM 48.1197 -121.5150 262° West 328 377 15,400  Level Seattle Center
06:47PM 48.1075 -121.6420 270° West 323 372 15,500  Climbing Seattle Center
06:48PM 48.1075 -121.7630 281° West 323 372 15,500  Level Seattle Center
06:49PM 48.1242 -121.8970 316° Northwest 328 377 15,600  Climbing Seattle Center
06:50PM 48.1850 -121.9840 55° Northeast 317 365 15,500  Descending Seattle Center
06:51PM 48.2411 -121.8650 96° East 199 229 15,600  Climbing Seattle Center
06:52PM 48.2292 -121.7020 99° East 242 278 15,600  Level Seattle Center
06:53PM 48.2131 -121.5460 98° East 305 351 15,700  Climbing Seattle Center
06:54PM 48.1986 -121.3870 100° East 354 407 15,700  Level Seattle Center
06:55PM 48.1797 -121.2280 102° East 374 430 15,700  Level Seattle Center
06:56PM 48.1567 -121.0660 103° East 386 444 15,800 -60 Climbing Seattle Center
06:57PM 48.1314 -120.9070 104° East 393 452 15,600 -120 Descending Seattle Center
06:58PM 48.1017 -120.7320 99° East 393 452 15,600 60 Level Seattle Center
06:59PM 48.0842 -120.5740 106° East 393 452 15,800 120 Climbing Seattle Center
07:00PM 48.0539 -120.4180 105° East 393 452 15,900 -60 Climbing Seattle Center
07:01PM 48.0275 -120.2660 95° East 387 445 15,700 -240 Descending Seattle Center
07:02PM 48.0175 -120.1050 95° East 387 445 15,500 -120 Descending Seattle Center
07:03PM 48.0075 -119.9440 97° East 387 445 15,500  Level Seattle Center
07:04PM 47.9931 -119.7790 96° East 387 445 15,500  Level Seattle Center
07:05PM 47.9825 -119.6190 97° East 387 445 15,500  Level Seattle Center
07:06PM 47.9697 -119.4570 95° East 387 445 15,500  Level Seattle Center
07:07PM 47.9608 -119.2960 97° East 387 445 15,500  Level Seattle Center
07:08PM 47.9475 -119.1360 96° East 387 445 15,500  Level Seattle Center
07:09PM 47.9361 -118.9750 96° East 387 445 15,500  Level Seattle Center
07:10PM 47.9247 -118.8170 95° East 387 445 15,500  Level Seattle Center
07:11PM 47.9150 -118.6570 97° East 387 445 15,500  Level Seattle Center
07:12PM 47.9028 -118.4990 95° East 387 445 15,500  Level Seattle Center
07:13PM 47.8928 -118.3420 95° East 387 445 15,500  Level Seattle Center
07:14PM 47.8825 -118.1810 92° East 387 445 15,500  Level Seattle Center
07:15PM 47.8781 -118.0240 23° Northeast 387 445 15,500  Level Seattle Center
07:16PM 47.9667 -117.9680 295° West 282 325 15,500  Level Seattle Center
07:17PM 48.0061 -118.0970 274° West 172 198 15,500  Level Seattle Center
07:18PM 48.0122 -118.2430 276° West 245 282 15,500 -60 Level Seattle Center
07:19PM 48.0222 -118.3910 277° West 301 346 15,400 -60 Descending Seattle Center
07:20PM 48.0344 -118.5360 278° West 344 396 15,400  Level Seattle Center
07:21PM 48.0483 -118.6850 280° West 364 419 15,400  Level Seattle Center
07:22PM 48.0661 -118.8300 279° West 369 425 15,400 -60 Level Seattle Center
07:23PM 48.0819 -118.9790 278° West 369 425 15,300  Descending Seattle Center
07:24PM 48.0953 -119.1250 279° West 369 425 15,400 -60 Climbing Seattle Center
07:25PM 48.1106 -119.2700 275° West 369 425 15,200 -60 Descending Seattle Center
07:26PM 48.1194 -119.4100 176° South 364 419 15,300 180 Climbing Seattle Center
07:27PM 48.0258 -119.4010 100° East 227 261 15,600 180 Climbing Seattle Center
07:28PM 48.0086 -119.2500 75° East 182 209 15,700 -120 Climbing Seattle Center
07:29PM 48.0347 -119.1040 334° Northwest 264 304 15,400 -120 Descending Seattle Center
07:30PM 48.1225 -119.1680 260° West 181 208 15,500 60 Climbing Seattle Center
07:31PM 48.1064 -119.3040 246° West 177 204 15,600 -60 Climbing Seattle Center
07:32PM 48.0736 -119.4160 158° South 245 282 15,400 60 Descending Seattle Center
07:33PM 47.9819 -119.3610 58° Northeast 208 239 15,800  Climbing Seattle Center
07:34PM 48.0211 -119.2680 292° West 100 115 15,500 -180 Descending Seattle Center
07:35PM 48.0569 -119.4010 282° West 163 188 15,500 120 Level Seattle Center
07:36PM 48.0761 -119.5410 277° West 247 284 15,800 180 Climbing Seattle Center
07:37PM 48.0886 -119.6890 275° West 321 369 15,900 120 Climbing Seattle Center
07:38PM 48.0969 -119.8320 277° West 340 391 16,100  Climbing Seattle Center
07:39PM 48.1094 -119.9780 277° West 353 406 15,900 -240 Descending Seattle Center
07:40PM 48.1217 -120.1210 278° West 358 412 15,700 -60 Descending Seattle Center
07:41PM 48.1356 -120.2670 275° West 358 412 15,800 120 Climbing Seattle Center
07:42PM 48.1433 -120.4130 274° West 358 412 16,000  Climbing Seattle Center
07:43PM 48.1506 -120.5620 272° West 358 412 15,900 -120 Descending Seattle Center
07:44PM 48.1539 -120.7090 269° West 358 412 15,800 -180 Descending Seattle Center
07:45PM 48.1528 -120.8240 273° West 352 405 15,600 -120 Descending Seattle Center
07:46PM 48.1575 -120.9850 275° West 357 411 15,600 -60 Level Seattle Center
07:47PM 48.1661 -121.1470 274° West 357 411 15,500 -60 Descending Seattle Center
07:48PM 48.1728 -121.2900 276° West 352 405 15,500  Level Seattle Center
07:49PM 48.1833 -121.4340 297° West 352 405 15,500  Level Seattle Center
07:50PM 48.2233 -121.5530 28° Northeast 329 379 15,500  Level Seattle Center
07:51PM 48.3117 -121.4810 92° East 223 257 15,500  Level Seattle Center
07:52PM 48.3078 -121.3160 94° East 215 247 15,500  Level Seattle Center
07:53PM 48.2994 -121.1470 96° East 297 342 15,500  Level Seattle Center
07:54PM 48.2886 -120.9850 97° East 353 406 15,600  Climbing Seattle Center
07:55PM 48.2756 -120.8170 97° East 386 444 15,600  Level Seattle Center
07:56PM 48.2625 -120.6510 98° East 399 459 15,700 -60 Climbing Seattle Center
07:57PM 48.2467 -120.4920 102° East 392 451 15,500  Descending Seattle Center
07:58PM 48.2247 -120.3330 103° East 392 451 15,700  Climbing Seattle Center
07:59PM 48.2003 -120.1770 106° East 392 451 15,600 -180 Descending Seattle Center
08:00PM 48.1697 -120.0220 107° East 392 451 15,400 -180 Descending Seattle Center
08:01PM 48.1386 -119.8660 109° East 392 451 15,300 60 Descending Seattle Center
08:02PM 48.1033 -119.7170 98° East 392 451 15,600 180 Climbing Seattle Center
08:03PM 48.0886 -119.5560 97° East 386 444 15,700  Climbing Seattle Center
08:04PM 48.0756 -119.3920 87° East 386 444 15,600 -120 Descending Seattle Center
08:05PM 48.0811 -119.2300 13° North 392 451 15,500 -60 Descending Seattle Center
08:06PM 48.1747 -119.1980 286° West 271 312 15,500  Level Seattle Center
08:07PM 48.2022 -119.3380 275° West 171 197 15,500 120 Level Seattle Center
08:08PM 48.2111 -119.4900 275° West 255 293 15,800  Climbing Seattle Center
08:09PM 48.2197 -119.6360 276° West 316 364 15,600 -120 Descending Seattle Center
08:10PM 48.2303 -119.7790 274° West 337 388 15,600  Level Seattle Center
08:11PM 48.2364 -119.9290 272° West 350 403 15,700 -60 Climbing Seattle Center
08:12PM 48.2403 -120.0720 273° West 355 409 15,500 -240 Descending Seattle Center
08:13PM 48.2461 -120.2180 271° West 355 409 15,300 -240 Descending Seattle Center
08:14PM 48.2475 -120.3620 268° West 355 409 15,100 60 Descending Seattle Center
08:15PM 48.2447 -120.5080 265° West 350 403 15,500 360 Climbing Seattle Center
08:16PM 48.2375 -120.6410 237° Southwest 344 396 15,900 240 Climbing Seattle Center
08:17PM 48.1867 -120.7560 247° West 325 374 16,000  Climbing Seattle Center
08:18PM 48.1503 -120.8820 246° West 325 374 16,000  Level Seattle Center
08:19PM 48.1117 -121.0090 244° Southwest 337 388 16,000 -360 Level Seattle Center
08:20PM 48.0728 -121.1290 245° Southwest 337 388 15,300 -1,020 Descending Seattle Center
08:21PM 48.0361 -121.2460 244° Southwest 327 376 14,000 -1,500 Descending Seattle Center
08:22PM 48.0014 -121.3540 244° Southwest 313 360 12,400 -1,500 Descending Seattle Center
08:23PM 47.9689 -121.4550 245° Southwest 307 353 11,000 -900 Descending Seattle Center
08:24PM 47.9428 -121.5370 240° Southwest 298 343 11,000  Level Seattle Center
08:24PM 47.9319 -121.5650 246° West 302 348 11,000  Level Seattle Center
08:25PM 47.9122 -121.6320 240° Southwest 285 328 11,000  Level Seattle Center
08:25PM 47.8992 -121.6660 237° Southwest 295 339 11,000  Level Seattle Center
08:26PM 47.8711 -121.7300 217° Southwest 277 319 11,000 -300 Level Seattle Center
08:26PM 47.8497 -121.7540 225° Southwest 282 325 10,700 -1,020 Descending Seattle Center
08:27PM 47.8136 -121.8080 216° Southwest 279 321 10,000 -1,140 Descending Seattle Center
08:27PM 47.7944 -121.8290 223° Southwest 282 325 9,600 -1,440 Descending Seattle Center
08:28PM 47.7561 -121.8830 218° Southwest 243 280 8,600 -1,740 Descending Seattle Center
08:28PM 47.7433 -121.8980 235° Southwest 263 303 7,900 -1,980 Descending Seattle Center
08:29PM 47.7175 -121.9520 261° West 227 261 6,600 -1,620 Descending Seattle Center
08:29PM 47.7147 -121.9770 258° West 237 273 6,300 -1,140 Descending Seattle Center
08:30PM 47.7053 -122.0440 262° West 222 255 5,500 -1,320 Descending Seattle Center
08:30PM 47.7028 -122.0690 268° West 218 251 5,000 -1,500 Descending Seattle Center
08:31PM 47.7014 -122.1370 268° West 224 258 4,000 -1,440 Descending Seattle Center
08:31PM 47.7008 -122.1580 266° West 218 251 3,600 -1,020 Descending Seattle Center
08:32PM 47.6975 -122.2260 277° West 222 255 3,000 -600 Descending Seattle Center
08:32PM 47.6992 -122.2470 263° West 218 251 3,000 -540 Level Seattle Center
08:33PM 47.6936 -122.3150 254° West 221 254 2,500 -600 Descending Seattle Center
08:33PM 47.6889 -122.3390 240° Southwest 218 251 2,400 -300 Descending Seattle Center
08:34PM 47.6667 -122.3970 291° West 192 221 2,200 -240 Descending Seattle Center
08:34PM 47.6725 -122.4190 154° Southeast 206 237 2,200 -300 Level Seattle Center
08:35PM 47.6214 -122.3820 154° Southeast 182 209 1,900 -540 Descending Seattle Center
08:35PM 47.6131 -122.3760 152° Southeast 157 181 1,700 -900 Descending Seattle Center
08:36PM 47.5844 -122.3530 140° Southeast 154 177 1,000 -840 Descending Seattle Center
08:36PM 47.5764 -122.3430 151° Southeast 119 137 900 -840 Descending Seattle Center
08:37PM 47.5497 -122.3210 140° Southeast 151 174 200 15,060 Descending Seattle Center
08:37PM 47.5417 -122.3110 169° South 125 144 16,000 11,820 Climbing Seattle Center
08:38PM 47.5025 -122.3000 163° South 132 152 16,000  Level Seattle Center
08:39PM 47.4653 -122.2830 162° South 132 152 16,000  Level Seattle Center
08:40PM 47.4303 -122.2660 163° South 132 152 16,000  Level Seattle Center
08:41PM 47.3931 -122.2490 162° South 132 152 16,000  Level Seattle Center
08:42PM 47.3869 -122.2460 162° South 132 152 16,000  Level Seattle Center